createdAt,value
2019-04-21T00:00:20.381Z,8.67
2019-04-21T00:02:50.169Z,9.70
2019-04-21T00:05:38.530Z,12.27
2019-04-21T00:08:16.616Z,9.77
2019-04-21T00:10:41.885Z,10.87
2019-04-21T00:13:02.697Z,10.00
2019-04-21T00:18:03.923Z,10.77
2019-04-21T00:20:40.930Z,9.90
2019-04-21T00:23:18.098Z,11.33
2019-04-21T00:25:52.829Z,11.37
2019-04-21T00:28:39.102Z,10.33
2019-04-21T00:31:00.594Z,8.73
2019-04-21T00:33:20.735Z,10.67
2019-04-21T00:35:52.605Z,10.87
2019-04-21T00:38:42.701Z,13.83
2019-04-21T00:41:05.541Z,12.33
2019-04-21T00:43:28.010Z,8.87
2019-04-21T00:45:58.871Z,9.83
2019-04-21T00:48:34.434Z,11.97
2019-04-21T00:53:51.931Z,10.07
2019-04-21T00:56:17.693Z,10.03
2019-04-21T00:58:51.424Z,9.63
2019-04-21T01:01:15.021Z,13.17
2019-04-21T01:03:45.716Z,11.43
2019-04-21T01:06:20.819Z,12.60
2019-04-21T01:08:42.787Z,12.57
2019-04-21T01:11:17.916Z,10.47
2019-04-21T01:13:53.366Z,16.10
2019-04-21T01:16:25.685Z,12.10
2019-04-21T01:18:51.852Z,10.67
2019-04-21T01:20:59.354Z,11.30
2019-04-21T01:23:29.366Z,10.57
2019-04-21T01:26:12.169Z,10.20
2019-04-21T01:28:47.785Z,8.90
2019-04-21T01:31:17.536Z,9.03
2019-04-21T01:33:50.734Z,9.27
2019-04-21T01:36:21.091Z,8.47
2019-04-21T01:38:56.004Z,9.37
2019-04-21T01:41:29.335Z,10.73
2019-04-21T01:43:53.512Z,10.07
2019-04-21T01:46:19.433Z,9.10
2019-04-21T01:48:50.479Z,10.80
2019-04-21T01:51:20.944Z,10.27
2019-04-21T01:54:09.347Z,10.93
2019-04-21T01:56:40.490Z,11.43
2019-04-21T01:59:00.874Z,14.40
2019-04-21T02:01:39.215Z,12.93
2019-04-21T02:04:14.018Z,11.97
2019-04-21T02:06:55.368Z,12.27
2019-04-21T02:09:15.489Z,10.30
2019-04-21T02:11:55.107Z,9.70
2019-04-21T02:14:31.987Z,9.27
2019-04-21T02:16:54.039Z,10.20
2019-04-21T02:19:18.293Z,12.63
2019-04-21T02:21:47.469Z,13.17
2019-04-21T02:24:31.239Z,10.67
2019-04-21T02:26:56.154Z,7.60
2019-04-21T02:29:27.465Z,10.77
2019-04-21T02:37:27.198Z,12.27
2019-04-21T02:39:40.769Z,10.73
2019-04-21T02:44:43.362Z,11.50
2019-04-21T02:47:07.041Z,12.70
2019-04-21T02:49:56.591Z,12.17
2019-04-21T02:52:20.155Z,13.90
2019-04-21T02:57:22.653Z,17.00
2019-04-21T02:59:50.067Z,13.53
2019-04-21T03:02:24.931Z,15.17
2019-04-21T03:05:01.781Z,12.40
2019-04-21T03:07:44.576Z,11.77
2019-04-21T03:10:06.456Z,12.47
2019-04-21T03:12:34.547Z,12.50
2019-04-21T03:15:23.547Z,12.93
2019-04-21T03:17:43.881Z,12.07
2019-04-21T03:20:08.845Z,12.17
2019-04-21T03:22:31.626Z,12.07
2019-04-21T03:25:25.249Z,12.97
2019-04-21T03:27:50.593Z,13.23
2019-04-21T03:35:53.429Z,15.17
2019-04-21T03:37:37.184Z,19.03
2019-04-21T03:42:54.974Z,15.77
2019-04-21T03:45:23.376Z,25.63
2019-04-21T03:47:47.846Z,20.87
2019-04-21T03:50:12.840Z,22.73
2019-04-21T03:52:58.425Z,15.70
2019-04-21T04:00:44.846Z,17.73
2019-04-21T04:03:45.570Z,20.40
2019-04-21T04:13:58.078Z,13.43
2019-04-21T04:16:18.846Z,13.93
2019-04-21T04:21:28.304Z,21.57
2019-04-21T04:24:00.880Z,19.27
2019-04-21T04:26:26.218Z,21.87
2019-04-21T04:28:58.137Z,24.87
2019-04-21T04:31:30.470Z,18.43
2019-04-21T04:34:04.748Z,22.57
2019-04-21T04:39:25.826Z,19.93
2019-04-21T04:54:50.948Z,19.37
2019-04-21T04:57:08.532Z,17.23
2019-04-21T05:02:12.940Z,34.97
2019-04-21T05:09:42.842Z,22.23
2019-04-21T05:12:07.757Z,19.27
2019-04-21T05:14:39.303Z,22.23
2019-04-21T05:17:14.317Z,15.63
2019-04-21T05:19:51.753Z,14.23
2019-04-21T05:22:11.025Z,17.13
2019-04-21T05:24:28.933Z,17.17
2019-04-21T05:26:59.520Z,19.80
2019-04-21T05:29:24.738Z,21.23
2019-04-21T05:32:08.076Z,24.50
2019-04-21T05:34:36.070Z,16.13
2019-04-21T05:37:20.196Z,21.50
2019-04-21T05:39:47.973Z,18.07
2019-04-21T05:42:10.684Z,19.60
2019-04-21T05:45:01.692Z,29.67
2019-04-21T05:49:55.462Z,26.87
2019-04-21T05:52:22.493Z,29.37
2019-04-21T05:55:01.268Z,22.00
2019-04-21T05:57:29.133Z,26.47
2019-04-21T06:00:00.937Z,33.13
2019-04-21T06:02:28.985Z,28.37
2019-04-21T06:05:13.657Z,21.20
2019-04-21T06:12:38.194Z,24.50
2019-04-21T06:15:19.684Z,29.50
2019-04-21T06:17:35.756Z,32.93
2019-04-21T06:20:10.476Z,41.73
2019-04-21T06:22:28.926Z,39.03
2019-04-21T06:25:36.017Z,32.27
2019-04-21T06:27:51.067Z,31.73
2019-04-21T06:30:06.589Z,26.93
2019-04-21T06:35:48.413Z,28.87
2019-04-21T06:38:03.664Z,27.93
2019-04-21T06:40:36.152Z,29.43
2019-04-21T06:43:16.306Z,23.70
2019-04-21T06:45:34.965Z,30.03
2019-04-21T06:48:04.723Z,30.97
2019-04-21T06:50:41.547Z,26.70
2019-04-21T06:53:16.505Z,27.90
2019-04-21T06:55:35.214Z,27.67
2019-04-21T06:58:08.831Z,29.43
2019-04-21T07:00:30.540Z,36.20
2019-04-21T07:03:17.021Z,30.03
2019-04-21T07:05:40.951Z,23.03
2019-04-21T07:08:21.901Z,26.63
2019-04-21T07:10:38.517Z,21.60
2019-04-21T07:13:03.676Z,20.40
2019-04-21T07:15:39.108Z,18.73
2019-04-21T07:18:12.393Z,18.97
2019-04-21T07:20:36.645Z,16.77
2019-04-21T07:23:11.895Z,17.63
2019-04-21T07:25:41.145Z,10.53
2019-04-21T07:28:12.843Z,9.87
2019-04-21T07:30:43.950Z,10.27
2019-04-21T07:33:37.573Z,8.03
2019-04-21T07:35:45.770Z,10.03
2019-04-21T07:38:15.003Z,11.57
2019-04-21T07:40:33.680Z,14.43
2019-04-21T07:43:05.550Z,13.83
2019-04-21T07:45:35.124Z,12.57
2019-04-21T07:48:16.228Z,11.13
2019-04-21T07:51:09.555Z,9.77
2019-04-21T07:53:48.117Z,11.53
2019-04-21T07:55:49.640Z,11.20
2019-04-21T07:58:35.871Z,10.40
2019-04-21T08:01:12.444Z,10.50
2019-04-21T08:03:38.876Z,10.57
2019-04-21T08:06:31.997Z,10.03
2019-04-21T08:08:34.241Z,9.30
2019-04-21T08:11:09.589Z,7.33
2019-04-21T08:13:50.318Z,8.53
2019-04-21T08:16:14.775Z,8.63
2019-04-21T08:18:40.018Z,8.50
2019-04-21T08:21:15.290Z,8.77
2019-04-21T08:57:41.460Z,7.43
2019-04-21T09:00:14.630Z,8.47
2019-04-21T09:03:06.685Z,7.03
2019-04-21T09:05:35.885Z,10.40
2019-04-21T09:08:03.976Z,9.03
2019-04-21T09:10:34.916Z,7.40
2019-04-21T09:13:04.455Z,10.00
2019-04-21T09:15:34.958Z,6.67
2019-04-21T09:18:03.046Z,7.60
2019-04-21T09:23:06.488Z,9.93
2019-04-21T09:25:40.794Z,7.70
2019-04-21T09:28:04.058Z,9.27
2019-04-21T09:30:22.031Z,7.57
2019-04-21T09:32:54.417Z,9.30
2019-04-21T09:35:22.278Z,8.10
2019-04-21T09:38:00.310Z,8.10
2019-04-21T09:40:30.142Z,6.43
2019-04-21T09:42:59.459Z,8.10
2019-04-21T09:45:24.491Z,9.37
2019-04-21T09:48:01.041Z,8.27
2019-04-21T09:50:24.264Z,8.57
2019-04-21T09:52:58.678Z,7.60
2019-04-21T09:55:31.370Z,6.90
2019-04-21T09:57:57.712Z,6.87
2019-04-21T10:00:28.727Z,7.87
2019-04-21T10:03:02.624Z,8.70
2019-04-21T10:05:25.428Z,7.60
2019-04-21T10:07:55.249Z,8.60
2019-04-21T10:10:25.240Z,6.57
2019-04-21T10:12:54.138Z,6.20
2019-04-21T10:15:24.631Z,7.53
2019-04-21T10:17:58.289Z,8.00
2019-04-21T10:20:27.069Z,6.07
2019-04-21T10:22:57.310Z,6.77
2019-04-21T10:25:26.298Z,7.27
2019-04-21T10:27:55.042Z,8.30
2019-04-21T10:30:24.623Z,6.63
2019-04-21T10:32:54.319Z,7.17
2019-04-21T10:35:24.383Z,8.10
2019-04-21T10:38:04.408Z,7.97
2019-04-21T10:40:25.360Z,7.57
2019-04-21T10:42:54.249Z,7.60
2019-04-21T10:45:23.187Z,7.67
2019-04-21T10:47:52.814Z,5.93
2019-04-21T10:50:22.621Z,8.33
2019-04-21T10:53:05.210Z,12.67
2019-04-21T10:55:48.608Z,7.33
2019-04-21T10:58:08.825Z,7.30
2019-04-21T11:00:39.756Z,10.97
2019-04-21T11:03:26.942Z,6.67
2019-04-21T11:05:58.798Z,9.83
2019-04-21T11:08:32.325Z,6.63
2019-04-21T11:10:58.248Z,14.43
2019-04-21T11:13:26.953Z,6.60
2019-04-21T11:15:57.035Z,6.83
2019-04-21T11:18:26.058Z,6.93
2019-04-21T11:20:55.209Z,6.10
2019-04-21T11:23:25.041Z,6.13
2019-04-21T11:25:53.977Z,6.93
2019-04-21T11:28:22.991Z,6.83
2019-04-21T11:30:53.064Z,7.90
2019-04-21T11:33:22.786Z,7.70
2019-04-21T11:35:53.133Z,7.03
2019-04-21T11:38:29.051Z,6.83
2019-04-21T11:40:58.104Z,6.63
2019-04-21T11:43:26.945Z,7.00
2019-04-21T11:45:55.662Z,8.03
2019-04-21T11:48:28.446Z,7.23
2019-04-21T11:50:57.491Z,6.93
2019-04-21T11:53:26.255Z,15.77
2019-04-21T11:55:55.594Z,10.47
2019-04-21T11:58:26.263Z,12.53
2019-04-21T12:01:03.473Z,6.70
2019-04-21T12:03:33.640Z,9.27
2019-04-21T12:06:03.625Z,9.77
2019-04-21T12:08:39.306Z,6.83
2019-04-21T12:11:03.288Z,11.13
2019-04-21T12:13:32.350Z,8.20
2019-04-21T12:16:01.135Z,6.27
2019-04-21T12:18:31.913Z,7.57
2019-04-21T12:21:01.193Z,6.13
2019-04-21T12:23:32.495Z,8.13
2019-04-21T12:26:01.435Z,6.80
2019-04-21T12:28:30.465Z,8.20
2019-04-21T12:31:00.135Z,7.00
2019-04-21T12:33:34.165Z,7.20
2019-04-21T12:36:03.961Z,6.00
2019-04-21T12:38:42.636Z,6.40
2019-04-21T12:41:04.606Z,7.23
2019-04-21T12:43:34.775Z,6.17
2019-04-21T12:46:04.218Z,6.87
2019-04-21T12:48:33.815Z,6.23
2019-04-21T12:51:03.881Z,8.33
2019-04-21T12:53:33.961Z,6.50
2019-04-21T12:56:02.892Z,5.67
2019-04-21T12:58:31.600Z,6.77
2019-04-21T13:01:00.916Z,7.23
2019-04-21T13:03:30.402Z,7.77
2019-04-21T13:05:59.283Z,15.90
2019-04-21T13:08:29.277Z,8.47
2019-04-21T13:10:58.489Z,12.60
2019-04-21T13:13:28.141Z,10.17
2019-04-21T13:15:57.718Z,7.10
2019-04-21T13:18:27.029Z,14.43
2019-04-21T13:20:56.103Z,8.33
2019-04-21T13:23:24.999Z,8.57
2019-04-21T13:25:54.116Z,10.07
2019-04-21T13:28:23.046Z,6.80
2019-04-21T13:30:51.702Z,7.70
2019-04-21T13:33:21.027Z,9.60
2019-04-21T13:35:50.905Z,8.30
2019-04-21T13:38:30.130Z,6.30
2019-04-21T13:41:10.731Z,8.30
2019-04-21T13:43:25.373Z,8.87
2019-04-21T13:45:54.120Z,8.97
2019-04-21T13:48:24.282Z,8.50
2019-04-21T13:50:53.503Z,10.03
2019-04-21T13:53:22.769Z,7.50
2019-04-21T13:55:52.892Z,8.83
2019-04-21T13:58:22.107Z,6.83
2019-04-21T14:00:52.374Z,7.37
2019-04-21T14:03:23.393Z,6.90
2019-04-21T14:05:51.926Z,7.33
2019-04-21T14:08:21.082Z,7.43
2019-04-21T14:10:51.396Z,7.00
2019-04-21T14:13:20.477Z,6.53
2019-04-21T14:15:51.658Z,7.83
2019-04-21T14:18:20.653Z,8.07
2019-04-21T14:20:49.480Z,8.93
2019-04-21T14:23:28.588Z,7.17
2019-04-21T14:25:49.993Z,12.10
2019-04-21T14:28:19.925Z,6.63
2019-04-21T14:30:50.328Z,7.10
2019-04-21T14:33:20.462Z,7.50
2019-04-21T14:35:50.623Z,9.70
2019-04-21T14:38:20.596Z,8.37
2019-04-21T14:40:50.329Z,7.67
2019-04-21T14:43:20.440Z,9.67
2019-04-21T14:45:52.645Z,6.97
2019-04-21T14:48:23.306Z,9.33
2019-04-21T14:51:06.524Z,14.50
2019-04-21T14:53:39.752Z,8.33
2019-04-21T14:56:09.128Z,14.37
2019-04-21T14:58:39.145Z,10.70
2019-04-21T15:01:08.370Z,11.67
2019-04-21T15:03:37.612Z,12.03
2019-04-21T15:06:07.506Z,8.77
2019-04-21T15:08:37.359Z,6.67
2019-04-21T15:11:07.067Z,7.30
2019-04-21T15:13:37.721Z,7.17
2019-04-21T15:16:08.987Z,12.47
2019-04-21T15:18:38.866Z,6.10
2019-04-21T15:21:07.859Z,9.10
2019-04-21T15:23:36.588Z,9.03
2019-04-21T15:26:06.098Z,10.40
2019-04-21T15:28:37.229Z,13.17
2019-04-21T15:31:05.315Z,9.60
2019-04-21T15:33:34.968Z,7.13
2019-04-21T15:36:05.090Z,17.73
2019-04-21T15:38:34.022Z,11.07
2019-04-21T15:41:06.758Z,11.00
2019-04-21T15:43:33.515Z,10.17
2019-04-21T15:46:02.633Z,11.17
2019-04-21T15:48:31.412Z,10.87
2019-04-21T15:51:03.684Z,10.83
2019-04-21T15:53:33.880Z,17.67
2019-04-21T15:56:08.707Z,9.03
2019-04-21T15:58:46.367Z,10.07
2019-04-21T16:01:30.253Z,9.67
2019-04-21T16:04:00.565Z,7.77
2019-04-21T16:06:29.709Z,10.73
2019-04-21T16:09:00.863Z,8.10
2019-04-21T16:11:28.919Z,9.33
2019-04-21T16:13:57.635Z,11.83
2019-04-21T16:16:28.662Z,9.43
2019-04-21T16:18:58.266Z,11.27
2019-04-21T16:21:27.115Z,12.47
2019-04-21T16:23:56.386Z,13.67
2019-04-21T16:26:26.636Z,18.73
2019-04-21T16:28:55.520Z,23.60
2019-04-21T16:31:24.778Z,20.67
2019-04-21T16:33:54.738Z,32.47
2019-04-21T16:36:23.465Z,27.93
2019-04-21T16:38:53.481Z,34.40
2019-04-21T16:41:24.385Z,36.77
2019-04-21T16:43:53.283Z,34.83
2019-04-21T16:46:23.119Z,29.53
2019-04-21T16:48:52.058Z,32.10
2019-04-21T16:51:22.110Z,57.60
2019-04-21T16:53:52.543Z,67.47
2019-04-21T16:56:29.138Z,45.93
2019-04-21T16:59:00.776Z,44.23
2019-04-21T17:01:31.844Z,33.97
2019-04-21T17:04:00.683Z,39.37
2019-04-21T17:06:31.198Z,31.43
2019-04-21T17:09:00.973Z,26.63
2019-04-21T17:11:34.692Z,23.47
2019-04-21T17:14:00.656Z,25.80
2019-04-21T17:16:58.355Z,20.53
2019-04-21T17:19:12.722Z,26.87
2019-04-21T17:21:31.926Z,23.30
2019-04-21T17:24:02.152Z,25.63
2019-04-21T17:26:31.376Z,51.60
2019-04-21T17:29:02.650Z,41.57
2019-04-21T17:31:31.422Z,59.07
2019-04-21T17:34:09.493Z,53.57
2019-04-21T17:36:30.924Z,65.77
2019-04-21T17:39:00.124Z,32.83
2019-04-21T17:41:36.417Z,25.97
2019-04-21T17:44:00.382Z,39.30
2019-04-21T17:46:38.524Z,33.77
2019-04-21T17:49:01.030Z,40.60
2019-04-21T17:51:31.938Z,49.10
2019-04-21T17:54:13.530Z,46.87
2019-04-21T17:56:59.566Z,40.00
2019-04-21T17:59:43.242Z,56.43
2019-04-21T18:02:05.087Z,80.53
2019-04-21T18:04:42.600Z,91.70
2019-04-21T18:07:02.409Z,82.67
2019-04-21T18:09:44.105Z,17.97
2019-04-21T18:12:07.757Z,9.60
2019-04-21T18:14:20.681Z,10.83
2019-04-21T18:16:51.581Z,9.83
2019-04-21T18:19:26.095Z,10.23
2019-04-21T18:21:56.804Z,9.63
2019-04-21T18:24:38.032Z,9.50
2019-04-21T18:26:57.322Z,8.20
2019-04-21T18:29:25.523Z,8.87
2019-04-21T18:31:55.888Z,8.43
2019-04-21T18:34:34.162Z,18.33
2019-04-21T18:37:05.474Z,25.10
2019-04-21T18:39:52.695Z,30.50
2019-04-21T18:42:31.244Z,15.13
2019-04-21T18:45:20.646Z,20.07
2019-04-21T18:47:31.589Z,23.67
2019-04-21T18:49:54.424Z,23.87
2019-04-21T18:52:42.752Z,22.83
2019-04-21T18:55:09.857Z,31.77
2019-04-21T18:57:35.592Z,31.90
2019-04-21T18:59:57.435Z,34.03
2019-04-21T19:02:26.748Z,26.00
2019-04-21T19:05:05.813Z,21.13
2019-04-21T19:07:49.766Z,19.00
2019-04-21T19:10:22.223Z,20.20
2019-04-21T19:13:15.991Z,18.40
2019-04-21T19:15:15.853Z,19.23
2019-04-21T19:18:14.947Z,21.67
2019-04-21T19:20:20.614Z,12.50
2019-04-21T19:22:47.727Z,8.23
2019-04-21T19:25:38.771Z,9.90
2019-04-21T19:27:48.784Z,8.27
2019-04-21T19:30:30.183Z,8.20
2019-04-21T19:32:46.748Z,7.53
2019-04-21T19:35:05.514Z,8.53
2019-04-21T19:37:40.163Z,8.50
2019-04-21T19:40:16.148Z,7.57
2019-04-21T19:42:45.602Z,7.10
2019-04-21T19:45:25.572Z,8.23
2019-04-21T19:47:56.492Z,8.40
2019-04-21T19:50:30.983Z,8.00
2019-04-21T19:52:48.685Z,6.67
2019-04-21T19:55:11.919Z,8.43
2019-04-21T19:57:41.092Z,8.57
2019-04-21T20:00:12.087Z,10.03
2019-04-21T20:02:40.973Z,10.00
2019-04-21T20:05:16.500Z,7.30
2019-04-21T20:08:01.639Z,6.77
2019-04-21T20:10:44.505Z,13.27
2019-04-21T20:13:06.430Z,15.40
2019-04-21T20:15:36.082Z,12.27
2019-04-21T20:17:58.858Z,11.20
2019-04-21T20:20:13.340Z,11.83
2019-04-21T20:22:46.802Z,12.83
2019-04-21T20:25:17.487Z,13.60
2019-04-21T20:27:52.801Z,39.13
2019-04-21T20:30:34.668Z,16.43
2019-04-21T20:33:05.832Z,13.50
2019-04-21T20:35:48.226Z,19.80
2019-04-21T20:38:02.277Z,14.13
2019-04-21T20:40:28.373Z,12.90
2019-04-21T20:43:08.637Z,18.43
2019-04-21T20:45:40.292Z,18.57
2019-04-21T20:47:53.956Z,22.87
2019-04-21T20:50:33.884Z,17.13
2019-04-21T20:53:06.133Z,29.80
2019-04-21T20:55:30.075Z,34.93
2019-04-21T20:58:02.895Z,42.87
2019-04-21T21:00:50.795Z,36.07
2019-04-21T21:03:12.164Z,21.77
2019-04-21T21:05:37.353Z,20.30
2019-04-21T21:08:16.917Z,30.77
2019-04-21T21:10:38.728Z,28.43
2019-04-21T21:13:21.182Z,20.80
2019-04-21T21:15:50.127Z,18.67
2019-04-21T21:18:26.860Z,23.33
2019-04-21T21:20:44.797Z,18.13
2019-04-21T21:23:07.778Z,13.20
2019-04-21T21:25:50.465Z,12.30
2019-04-21T21:28:09.218Z,12.20
2019-04-21T21:30:38.562Z,12.63
2019-04-21T21:33:18.519Z,12.50
2019-04-21T21:35:41.070Z,12.07
2019-04-21T21:38:21.323Z,14.13
2019-04-21T21:40:45.537Z,13.10
2019-04-21T21:43:02.780Z,13.83
2019-04-21T21:45:39.402Z,19.53
2019-04-21T21:48:20.864Z,14.53
2019-04-21T21:50:43.088Z,19.80
2019-04-21T21:53:08.278Z,18.43
2019-04-21T21:55:35.411Z,23.77
2019-04-21T21:58:05.537Z,26.70
2019-04-21T22:00:37.043Z,28.47
2019-04-21T22:03:15.706Z,31.87
2019-04-21T22:05:46.792Z,32.00
2019-04-21T22:08:06.792Z,27.53
2019-04-21T22:10:36.897Z,22.73
2019-04-21T22:13:09.612Z,23.57
2019-04-21T22:15:37.673Z,22.97
2019-04-21T22:18:25.748Z,16.90
2019-04-21T22:20:56.488Z,18.67
2019-04-21T22:23:13.339Z,22.23
2019-04-21T22:25:41.666Z,21.90
2019-04-21T22:28:09.482Z,23.77
2019-04-21T22:30:43.845Z,21.13
2019-04-21T22:33:12.340Z,22.13
2019-04-21T22:35:46.305Z,20.27
2019-04-21T22:38:24.722Z,20.23
2019-04-21T22:40:50.696Z,21.37
2019-04-21T22:43:24.482Z,20.73
2019-04-21T22:45:41.273Z,21.23
2019-04-21T22:48:15.539Z,19.90
2019-04-21T22:50:42.358Z,21.97
2019-04-21T22:53:13.699Z,21.70
2019-04-21T22:55:42.970Z,18.60
2019-04-21T22:58:15.933Z,19.37
2019-04-21T23:00:46.031Z,19.00
2019-04-21T23:03:19.289Z,17.17
2019-04-21T23:05:46.179Z,17.10
2019-04-21T23:08:15.059Z,17.70
2019-04-21T23:10:49.646Z,15.93
2019-04-21T23:13:19.286Z,17.73
2019-04-21T23:15:51.210Z,17.43
2019-04-21T23:18:30.477Z,20.87
2019-04-21T23:21:03.549Z,15.60
2019-04-21T23:23:39.704Z,17.67
2019-04-21T23:26:11.326Z,16.47
2019-04-21T23:28:40.538Z,17.17
2019-04-21T23:31:06.296Z,16.30
2019-04-21T23:33:20.139Z,16.53
2019-04-21T23:35:49.548Z,14.53
2019-04-21T23:38:27.845Z,16.63
2019-04-21T23:40:55.824Z,14.87
2019-04-21T23:43:24.560Z,15.43
2019-04-21T23:45:51.752Z,15.90
2019-04-21T23:48:32.372Z,15.53
2019-04-21T23:50:58.054Z,15.07
2019-04-21T23:53:21.605Z,12.37
2019-04-21T23:55:50.308Z,11.50
2019-04-21T23:58:25.475Z,13.63
